logo
Rechercher aéroport 
image banner adimage banner adimage banner ad
image banner ad

VT43 - Onyon

Situé à Townshend, United States

ICAO - VT43, IATA -

Données fournies par Airmate  

Information générale

Coordonnées: N43°1'9" W72°39'10"
Élévation : 427 feet MSL.
Variation magnétique : -15° East
Voir autres Aéroports à Vermont

Données opérationnelles

Special qualification required
Heure actuelle UTC:
Heure actuelle locale:
Météo à : KEEN - Dillant/Hopkins ( 34 km )
METAR: KEEN 251756Z AUTO VRB06KT 10SM CLR 24/10 A2984 RMK AO2 SLP106 T02390100 10239 20133 58022 $
Voir NOTAMs / SUP AIP / TFR affectant cet aéroport [VIEW]
Fréquences de communication: [VIEW]

Pistes:

Identifiant RWYQFULongueur (ft)Largeur (ft)SurfaceLDA (ft)
122000100GRASS
302000100GRASS
H100UNK

Coordonnées de l'aéroport

Adresse: Townshend United States

Vue satellite de VT43